sensor_id;sensor_type;location;lat;lon;timestamp;P1;durP1;ratioP1;P2;durP2;ratioP2
37303;SDS011;23188;51.188;16.374;2023-07-20T00:02:16;6.90;;;3.10;;
37303;SDS011;23188;51.188;16.374;2023-07-20T00:06:18;5.40;;;1.70;;
37303;SDS011;23188;51.188;16.374;2023-07-20T00:10:20;6.10;;;2.70;;
37303;SDS011;23188;51.188;16.374;2023-07-20T00:14:22;5.10;;;2.70;;
37303;SDS011;23188;51.188;16.374;2023-07-20T00:18:24;5.40;;;3.30;;
37303;SDS011;23188;51.188;16.374;2023-07-20T00:22:25;8.40;;;2.80;;
37303;SDS011;23188;51.188;16.374;2023-07-20T00:26:27;27.00;;;3.20;;
37303;SDS011;23188;51.188;16.374;2023-07-20T00:30:29;13.70;;;3.30;;
37303;SDS011;23188;51.188;16.374;2023-07-20T00:34:30;8.90;;;3.40;;
37303;SDS011;23188;51.188;16.374;2023-07-20T00:38:32;12.40;;;2.90;;
37303;SDS011;23188;51.188;16.374;2023-07-20T00:42:34;6.00;;;2.50;;
37303;SDS011;23188;51.188;16.374;2023-07-20T00:46:35;4.50;;;2.30;;
37303;SDS011;23188;51.188;16.374;2023-07-20T00:50:37;7.80;;;2.60;;
37303;SDS011;23188;51.188;16.374;2023-07-20T00:54:41;29.00;;;2.80;;
37303;SDS011;23188;51.188;16.374;2023-07-20T00:58:43;4.00;;;2.70;;
37303;SDS011;23188;51.188;16.374;2023-07-20T01:02:45;6.80;;;2.50;;
37303;SDS011;23188;51.188;16.374;2023-07-20T01:07:00;5.70;;;3.80;;
37303;SDS011;23188;51.188;16.374;2023-07-20T01:11:21;7.40;;;2.60;;
37303;SDS011;23188;51.188;16.374;2023-07-20T01:15:30;4.30;;;1.80;;
37303;SDS011;23188;51.188;16.374;2023-07-20T01:19:31;5.60;;;3.20;;
37303;SDS011;23188;51.188;16.374;2023-07-20T01:28:30;5.20;;;2.20;;
37303;SDS011;23188;51.188;16.374;2023-07-20T01:32:46;4.30;;;2.10;;
37303;SDS011;23188;51.188;16.374;2023-07-20T01:36:49;6.90;;;2.80;;
37303;SDS011;23188;51.188;16.374;2023-07-20T01:40:53;7.50;;;3.80;;
37303;SDS011;23188;51.188;16.374;2023-07-20T01:44:56;10.80;;;4.10;;
37303;SDS011;23188;51.188;16.374;2023-07-20T01:48:57;7.90;;;2.60;;
37303;SDS011;23188;51.188;16.374;2023-07-20T01:52:59;4.50;;;2.60;;
37303;SDS011;23188;51.188;16.374;2023-07-20T01:57:01;7.10;;;2.70;;
37303;SDS011;23188;51.188;16.374;2023-07-20T02:01:02;7.30;;;3.50;;
37303;SDS011;23188;51.188;16.374;2023-07-20T02:05:04;5.80;;;2.80;;
37303;SDS011;23188;51.188;16.374;2023-07-20T02:09:05;15.20;;;3.30;;
37303;SDS011;23188;51.188;16.374;2023-07-20T02:13:07;7.40;;;3.70;;
37303;SDS011;23188;51.188;16.374;2023-07-20T02:17:09;5.80;;;3.10;;
37303;SDS011;23188;51.188;16.374;2023-07-20T02:21:12;6.50;;;3.30;;
37303;SDS011;23188;51.188;16.374;2023-07-20T02:25:13;14.90;;;3.70;;
37303;SDS011;23188;51.188;16.374;2023-07-20T02:29:15;8.60;;;3.80;;
37303;SDS011;23188;51.188;16.374;2023-07-20T02:33:16;3.80;;;2.60;;
37303;SDS011;23188;51.188;16.374;2023-07-20T02:37:18;6.00;;;3.50;;
37303;SDS011;23188;51.188;16.374;2023-07-20T02:41:19;5.90;;;3.40;;
37303;SDS011;23188;51.188;16.374;2023-07-20T02:45:21;9.00;;;4.50;;
37303;SDS011;23188;51.188;16.374;2023-07-20T02:49:23;5.40;;;2.90;;
37303;SDS011;23188;51.188;16.374;2023-07-20T02:53:25;5.90;;;3.40;;
37303;SDS011;23188;51.188;16.374;2023-07-20T02:57:26;10.10;;;4.30;;
37303;SDS011;23188;51.188;16.374;2023-07-20T03:01:28;5.40;;;3.40;;
37303;SDS011;23188;51.188;16.374;2023-07-20T03:05:33;10.40;;;5.60;;
37303;SDS011;23188;51.188;16.374;2023-07-20T03:09:35;6.40;;;3.60;;
37303;SDS011;23188;51.188;16.374;2023-07-20T03:13:36;7.80;;;5.20;;
37303;SDS011;23188;51.188;16.374;2023-07-20T03:17:38;10.60;;;4.60;;
37303;SDS011;23188;51.188;16.374;2023-07-20T03:21:40;7.30;;;4.20;;
37303;SDS011;23188;51.188;16.374;2023-07-20T03:25:42;8.80;;;4.60;;
37303;SDS011;23188;51.188;16.374;2023-07-20T03:29:44;7.20;;;3.90;;
37303;SDS011;23188;51.188;16.374;2023-07-20T03:33:45;6.60;;;4.60;;
37303;SDS011;23188;51.188;16.374;2023-07-20T03:37:47;5.80;;;4.70;;
37303;SDS011;23188;51.188;16.374;2023-07-20T03:41:49;6.90;;;4.50;;
37303;SDS011;23188;51.188;16.374;2023-07-20T03:45:51;9.80;;;5.40;;
37303;SDS011;23188;51.188;16.374;2023-07-20T03:49:53;9.80;;;5.80;;
37303;SDS011;23188;51.188;16.374;2023-07-20T03:53:55;13.20;;;5.20;;
37303;SDS011;23188;51.188;16.374;2023-07-20T03:57:57;6.80;;;5.20;;
37303;SDS011;23188;51.188;16.374;2023-07-20T04:01:59;8.10;;;5.00;;
37303;SDS011;23188;51.188;16.374;2023-07-20T04:06:00;8.50;;;6.20;;
37303;SDS011;23188;51.188;16.374;2023-07-20T04:10:02;17.80;;;7.10;;
37303;SDS011;23188;51.188;16.374;2023-07-20T04:14:04;10.90;;;5.10;;
37303;SDS011;23188;51.188;16.374;2023-07-20T04:18:06;11.90;;;4.60;;
37303;SDS011;23188;51.188;16.374;2023-07-20T04:22:08;15.30;;;5.40;;
37303;SDS011;23188;51.188;16.374;2023-07-20T04:26:10;6.70;;;4.10;;
37303;SDS011;23188;51.188;16.374;2023-07-20T04:30:16;8.50;;;5.20;;
37303;SDS011;23188;51.188;16.374;2023-07-20T04:34:20;13.70;;;5.50;;
37303;SDS011;23188;51.188;16.374;2023-07-20T04:38:22;6.30;;;4.50;;
37303;SDS011;23188;51.188;16.374;2023-07-20T04:42:25;11.60;;;4.00;;
37303;SDS011;23188;51.188;16.374;2023-07-20T04:46:27;9.60;;;4.90;;
37303;SDS011;23188;51.188;16.374;2023-07-20T04:50:29;9.20;;;5.20;;
37303;SDS011;23188;51.188;16.374;2023-07-20T04:54:30;13.50;;;5.30;;
37303;SDS011;23188;51.188;16.374;2023-07-20T04:58:32;9.40;;;5.50;;
37303;SDS011;23188;51.188;16.374;2023-07-20T05:02:34;15.60;;;5.80;;
37303;SDS011;23188;51.188;16.374;2023-07-20T05:06:36;23.00;;;7.20;;
37303;SDS011;23188;51.188;16.374;2023-07-20T05:10:37;10.80;;;4.90;;
37303;SDS011;23188;51.188;16.374;2023-07-20T05:14:39;9.70;;;5.20;;
37303;SDS011;23188;51.188;16.374;2023-07-20T05:18:43;15.20;;;5.90;;
37303;SDS011;23188;51.188;16.374;2023-07-20T05:22:44;8.40;;;5.20;;
37303;SDS011;23188;51.188;16.374;2023-07-20T05:26:47;10.90;;;5.80;;
37303;SDS011;23188;51.188;16.374;2023-07-20T05:30:50;17.60;;;6.00;;
37303;SDS011;23188;51.188;16.374;2023-07-20T05:34:54;6.10;;;4.90;;
37303;SDS011;23188;51.188;16.374;2023-07-20T05:38:56;9.70;;;5.20;;
37303;SDS011;23188;51.188;16.374;2023-07-20T05:42:58;9.40;;;4.60;;
37303;SDS011;23188;51.188;16.374;2023-07-20T05:47:00;10.30;;;5.10;;
37303;SDS011;23188;51.188;16.374;2023-07-20T05:51:02;9.20;;;4.20;;
37303;SDS011;23188;51.188;16.374;2023-07-20T05:55:04;9.80;;;4.80;;
37303;SDS011;23188;51.188;16.374;2023-07-20T05:59:06;10.10;;;6.10;;
37303;SDS011;23188;51.188;16.374;2023-07-20T06:03:07;8.80;;;5.90;;
37303;SDS011;23188;51.188;16.374;2023-07-20T06:07:09;5.60;;;5.00;;
37303;SDS011;23188;51.188;16.374;2023-07-20T06:11:11;6.60;;;5.50;;
37303;SDS011;23188;51.188;16.374;2023-07-20T06:15:26;10.00;;;6.00;;
37303;SDS011;23188;51.188;16.374;2023-07-20T06:19:29;7.40;;;4.30;;
37303;SDS011;23188;51.188;16.374;2023-07-20T06:23:31;8.00;;;4.50;;
37303;SDS011;23188;51.188;16.374;2023-07-20T06:27:33;8.60;;;4.20;;
37303;SDS011;23188;51.188;16.374;2023-07-20T06:31:35;7.50;;;4.70;;
37303;SDS011;23188;51.188;16.374;2023-07-20T06:35:40;4.00;;;3.60;;
37303;SDS011;23188;51.188;16.374;2023-07-20T06:39:44;4.00;;;3.20;;
37303;SDS011;23188;51.188;16.374;2023-07-20T06:43:49;4.90;;;3.00;;
37303;SDS011;23188;51.188;16.374;2023-07-20T06:47:51;3.90;;;3.20;;
37303;SDS011;23188;51.188;16.374;2023-07-20T06:51:53;7.00;;;3.30;;
37303;SDS011;23188;51.188;16.374;2023-07-20T06:55:55;3.30;;;3.00;;
37303;SDS011;23188;51.188;16.374;2023-07-20T06:59:58;3.30;;;3.00;;
37303;SDS011;23188;51.188;16.374;2023-07-20T07:04:00;3.50;;;3.10;;
37303;SDS011;23188;51.188;16.374;2023-07-20T07:08:02;3.80;;;3.30;;
37303;SDS011;23188;51.188;16.374;2023-07-20T07:12:05;4.10;;;3.70;;
37303;SDS011;23188;51.188;16.374;2023-07-20T07:16:07;4.50;;;4.10;;
37303;SDS011;23188;51.188;16.374;2023-07-20T07:20:11;2.90;;;2.50;;
37303;SDS011;23188;51.188;16.374;2023-07-20T07:24:21;4.80;;;3.60;;
37303;SDS011;23188;51.188;16.374;2023-07-20T07:28:22;6.20;;;3.90;;
37303;SDS011;23188;51.188;16.374;2023-07-20T07:32:24;5.40;;;3.80;;
37303;SDS011;23188;51.188;16.374;2023-07-20T07:36:26;3.70;;;3.30;;
37303;SDS011;23188;51.188;16.374;2023-07-20T07:40:28;2.80;;;2.50;;
37303;SDS011;23188;51.188;16.374;2023-07-20T07:44:29;4.70;;;3.60;;
37303;SDS011;23188;51.188;16.374;2023-07-20T07:48:31;4.40;;;3.90;;
37303;SDS011;23188;51.188;16.374;2023-07-20T07:52:33;3.30;;;2.20;;
37303;SDS011;23188;51.188;16.374;2023-07-20T07:56:35;3.80;;;2.50;;
37303;SDS011;23188;51.188;16.374;2023-07-20T08:00:36;3.90;;;3.00;;
37303;SDS011;23188;51.188;16.374;2023-07-20T08:04:38;3.80;;;2.60;;
37303;SDS011;23188;51.188;16.374;2023-07-20T08:08:40;2.90;;;2.60;;
37303;SDS011;23188;51.188;16.374;2023-07-20T08:12:42;6.70;;;2.60;;
37303;SDS011;23188;51.188;16.374;2023-07-20T08:16:44;3.60;;;2.80;;
37303;SDS011;23188;51.188;16.374;2023-07-20T08:20:47;9.40;;;3.00;;
37303;SDS011;23188;51.188;16.374;2023-07-20T08:24:50;2.10;;;1.90;;
37303;SDS011;23188;51.188;16.374;2023-07-20T08:28:52;5.40;;;2.00;;
37303;SDS011;23188;51.188;16.374;2023-07-20T08:32:54;4.70;;;2.30;;
37303;SDS011;23188;51.188;16.374;2023-07-20T08:36:56;1.80;;;1.70;;
37303;SDS011;23188;51.188;16.374;2023-07-20T08:40:58;8.90;;;2.80;;
37303;SDS011;23188;51.188;16.374;2023-07-20T08:45:01;1.40;;;1.30;;
37303;SDS011;23188;51.188;16.374;2023-07-20T08:49:09;3.90;;;2.00;;
37303;SDS011;23188;51.188;16.374;2023-07-20T08:53:12;4.00;;;1.80;;
37303;SDS011;23188;51.188;16.374;2023-07-20T08:57:15;2.90;;;1.50;;
37303;SDS011;23188;51.188;16.374;2023-07-20T09:01:19;7.20;;;1.60;;
37303;SDS011;23188;51.188;16.374;2023-07-20T09:05:24;3.20;;;1.70;;
37303;SDS011;23188;51.188;16.374;2023-07-20T09:09:27;2.00;;;1.10;;
37303;SDS011;23188;51.188;16.374;2023-07-20T09:13:29;3.90;;;1.80;;
37303;SDS011;23188;51.188;16.374;2023-07-20T09:17:31;2.00;;;1.40;;
37303;SDS011;23188;51.188;16.374;2023-07-20T09:21:33;1.20;;;1.10;;
37303;SDS011;23188;51.188;16.374;2023-07-20T09:25:37;2.40;;;1.60;;
37303;SDS011;23188;51.188;16.374;2023-07-20T09:29:48;1.80;;;1.30;;
37303;SDS011;23188;51.188;16.374;2023-07-20T09:33:51;2.00;;;1.40;;
37303;SDS011;23188;51.188;16.374;2023-07-20T09:37:59;3.60;;;1.50;;
37303;SDS011;23188;51.188;16.374;2023-07-20T09:42:05;1.50;;;1.40;;
37303;SDS011;23188;51.188;16.374;2023-07-20T09:46:10;1.70;;;1.50;;
37303;SDS011;23188;51.188;16.374;2023-07-20T09:50:12;4.10;;;1.80;;
37303;SDS011;23188;51.188;16.374;2023-07-20T09:54:17;2.30;;;2.10;;
37303;SDS011;23188;51.188;16.374;2023-07-20T09:58:19;4.40;;;2.70;;
37303;SDS011;23188;51.188;16.374;2023-07-20T10:02:23;2.30;;;2.10;;
37303;SDS011;23188;51.188;16.374;2023-07-20T10:06:32;2.20;;;1.80;;
37303;SDS011;23188;51.188;16.374;2023-07-20T10:10:35;4.60;;;2.80;;
37303;SDS011;23188;51.188;16.374;2023-07-20T10:14:41;2.50;;;2.40;;
37303;SDS011;23188;51.188;16.374;2023-07-20T10:18:51;2.20;;;2.10;;
37303;SDS011;23188;51.188;16.374;2023-07-20T10:23:02;3.00;;;1.80;;
37303;SDS011;23188;51.188;16.374;2023-07-20T10:27:04;5.10;;;2.50;;
37303;SDS011;23188;51.188;16.374;2023-07-20T10:31:07;2.90;;;2.10;;
37303;SDS011;23188;51.188;16.374;2023-07-20T10:35:12;4.40;;;3.30;;
37303;SDS011;23188;51.188;16.374;2023-07-20T10:39:26;8.60;;;3.50;;
37303;SDS011;23188;51.188;16.374;2023-07-20T10:43:30;4.70;;;2.80;;
37303;SDS011;23188;51.188;16.374;2023-07-20T10:47:32;7.10;;;3.70;;
37303;SDS011;23188;51.188;16.374;2023-07-20T10:51:55;3.80;;;2.60;;
37303;SDS011;23188;51.188;16.374;2023-07-20T10:56:12;12.60;;;4.00;;
37303;SDS011;23188;51.188;16.374;2023-07-20T11:00:18;5.70;;;3.10;;
37303;SDS011;23188;51.188;16.374;2023-07-20T11:04:37;6.40;;;4.20;;
37303;SDS011;23188;51.188;16.374;2023-07-20T11:08:41;12.40;;;5.20;;
37303;SDS011;23188;51.188;16.374;2023-07-20T11:13:15;5.60;;;3.20;;
37303;SDS011;23188;51.188;16.374;2023-07-20T11:17:31;3.70;;;3.30;;
37303;SDS011;23188;51.188;16.374;2023-07-20T11:21:38;4.00;;;3.50;;
37303;SDS011;23188;51.188;16.374;2023-07-20T11:26:02;8.40;;;4.70;;
37303;SDS011;23188;51.188;16.374;2023-07-20T11:30:05;4.70;;;3.40;;
37303;SDS011;23188;51.188;16.374;2023-07-20T11:34:17;7.30;;;3.60;;
37303;SDS011;23188;51.188;16.374;2023-07-20T11:38:21;10.00;;;5.30;;
37303;SDS011;23188;51.188;16.374;2023-07-20T11:42:29;10.30;;;3.70;;
37303;SDS011;23188;51.188;16.374;2023-07-20T11:46:34;7.10;;;3.50;;
37303;SDS011;23188;51.188;16.374;2023-07-20T11:50:39;10.00;;;4.80;;
37303;SDS011;23188;51.188;16.374;2023-07-20T11:54:41;4.30;;;3.90;;
37303;SDS011;23188;51.188;16.374;2023-07-20T11:58:50;3.20;;;2.90;;
37303;SDS011;23188;51.188;16.374;2023-07-20T12:02:53;3.70;;;3.40;;
37303;SDS011;23188;51.188;16.374;2023-07-20T12:06:55;4.00;;;3.50;;
37303;SDS011;23188;51.188;16.374;2023-07-20T12:10:57;5.60;;;4.80;;
37303;SDS011;23188;51.188;16.374;2023-07-20T12:15:15;4.30;;;3.60;;
37303;SDS011;23188;51.188;16.374;2023-07-20T12:19:18;8.70;;;6.20;;
37303;SDS011;23188;51.188;16.374;2023-07-20T12:23:19;4.20;;;3.80;;
37303;SDS011;23188;51.188;16.374;2023-07-20T12:27:21;5.00;;;3.60;;
37303;SDS011;23188;51.188;16.374;2023-07-20T12:31:23;6.30;;;3.60;;
37303;SDS011;23188;51.188;16.374;2023-07-20T12:35:29;4.00;;;3.00;;
37303;SDS011;23188;51.188;16.374;2023-07-20T12:39:31;4.00;;;3.40;;
37303;SDS011;23188;51.188;16.374;2023-07-20T12:43:32;10.70;;;2.80;;
37303;SDS011;23188;51.188;16.374;2023-07-20T12:47:34;3.10;;;1.70;;
37303;SDS011;23188;51.188;16.374;2023-07-20T12:51:36;2.60;;;1.70;;
37303;SDS011;23188;51.188;16.374;2023-07-20T12:55:38;3.60;;;2.40;;
37303;SDS011;23188;51.188;16.374;2023-07-20T12:59:41;2.10;;;1.90;;
37303;SDS011;23188;51.188;16.374;2023-07-20T13:03:42;1.70;;;1.60;;
37303;SDS011;23188;51.188;16.374;2023-07-20T13:07:47;2.10;;;2.00;;
37303;SDS011;23188;51.188;16.374;2023-07-20T13:11:51;1.40;;;1.30;;
37303;SDS011;23188;51.188;16.374;2023-07-20T13:15:54;1.20;;;1.10;;
37303;SDS011;23188;51.188;16.374;2023-07-20T13:19:56;1.50;;;1.10;;
37303;SDS011;23188;51.188;16.374;2023-07-20T13:23:57;1.00;;;0.90;;
37303;SDS011;23188;51.188;16.374;2023-07-20T13:27:59;1.40;;;1.00;;
37303;SDS011;23188;51.188;16.374;2023-07-20T13:32:01;1.40;;;1.30;;
37303;SDS011;23188;51.188;16.374;2023-07-20T13:36:06;1.40;;;1.20;;
37303;SDS011;23188;51.188;16.374;2023-07-20T13:40:11;1.30;;;1.10;;
37303;SDS011;23188;51.188;16.374;2023-07-20T13:44:14;0.90;;;0.60;;
37303;SDS011;23188;51.188;16.374;2023-07-20T13:48:18;2.40;;;0.90;;
37303;SDS011;23188;51.188;16.374;2023-07-20T13:52:28;1.00;;;0.80;;
37303;SDS011;23188;51.188;16.374;2023-07-20T13:56:33;1.20;;;0.50;;
37303;SDS011;23188;51.188;16.374;2023-07-20T14:00:34;1.00;;;0.90;;
37303;SDS011;23188;51.188;16.374;2023-07-20T14:04:36;1.30;;;0.90;;
37303;SDS011;23188;51.188;16.374;2023-07-20T14:08:38;1.30;;;0.60;;
37303;SDS011;23188;51.188;16.374;2023-07-20T14:12:39;1.00;;;0.60;;
37303;SDS011;23188;51.188;16.374;2023-07-20T14:16:41;0.50;;;0.50;;
37303;SDS011;23188;51.188;16.374;2023-07-20T14:20:42;0.70;;;0.50;;
37303;SDS011;23188;51.188;16.374;2023-07-20T14:24:45;1.60;;;1.40;;
37303;SDS011;23188;51.188;16.374;2023-07-20T14:28:47;0.60;;;0.60;;
37303;SDS011;23188;51.188;16.374;2023-07-20T14:32:48;11.50;;;0.80;;
37303;SDS011;23188;51.188;16.374;2023-07-20T14:36:51;1.70;;;1.10;;
37303;SDS011;23188;51.188;16.374;2023-07-20T14:40:53;0.60;;;0.60;;
37303;SDS011;23188;51.188;16.374;2023-07-20T14:44:55;2.90;;;0.90;;
37303;SDS011;23188;51.188;16.374;2023-07-20T14:48:57;1.60;;;0.80;;
37303;SDS011;23188;51.188;16.374;2023-07-20T14:52:58;1.50;;;1.30;;
37303;SDS011;23188;51.188;16.374;2023-07-20T14:57:07;2.20;;;0.50;;
37303;SDS011;23188;51.188;16.374;2023-07-20T15:01:15;1.70;;;0.90;;
37303;SDS011;23188;51.188;16.374;2023-07-20T15:05:20;1.90;;;0.60;;
37303;SDS011;23188;51.188;16.374;2023-07-20T15:09:25;2.30;;;0.90;;
37303;SDS011;23188;51.188;16.374;2023-07-20T15:13:26;0.50;;;0.40;;
37303;SDS011;23188;51.188;16.374;2023-07-20T15:17:28;1.00;;;0.60;;
37303;SDS011;23188;51.188;16.374;2023-07-20T15:21:30;1.90;;;0.80;;
37303;SDS011;23188;51.188;16.374;2023-07-20T15:25:32;3.40;;;0.50;;
37303;SDS011;23188;51.188;16.374;2023-07-20T15:29:34;1.80;;;0.80;;
37303;SDS011;23188;51.188;16.374;2023-07-20T15:33:37;0.90;;;0.60;;
37303;SDS011;23188;51.188;16.374;2023-07-20T15:37:38;2.10;;;1.30;;
37303;SDS011;23188;51.188;16.374;2023-07-20T15:41:40;2.50;;;1.10;;
37303;SDS011;23188;51.188;16.374;2023-07-20T15:45:45;0.80;;;0.60;;
37303;SDS011;23188;51.188;16.374;2023-07-20T15:49:47;0.90;;;0.70;;
37303;SDS011;23188;51.188;16.374;2023-07-20T15:53:49;1.50;;;0.80;;
37303;SDS011;23188;51.188;16.374;2023-07-20T15:57:51;3.60;;;1.20;;
37303;SDS011;23188;51.188;16.374;2023-07-20T16:01:52;1.20;;;0.70;;
37303;SDS011;23188;51.188;16.374;2023-07-20T16:05:55;1.50;;;0.50;;
37303;SDS011;23188;51.188;16.374;2023-07-20T16:09:58;1.40;;;0.60;;
37303;SDS011;23188;51.188;16.374;2023-07-20T16:14:05;3.50;;;0.80;;
37303;SDS011;23188;51.188;16.374;2023-07-20T16:18:07;1.50;;;0.40;;
37303;SDS011;23188;51.188;16.374;2023-07-20T16:22:09;1.70;;;1.30;;
37303;SDS011;23188;51.188;16.374;2023-07-20T16:26:13;1.00;;;0.90;;
37303;SDS011;23188;51.188;16.374;2023-07-20T16:30:15;1.30;;;0.90;;
37303;SDS011;23188;51.188;16.374;2023-07-20T16:34:18;2.10;;;0.80;;
37303;SDS011;23188;51.188;16.374;2023-07-20T16:38:20;1.80;;;1.00;;
37303;SDS011;23188;51.188;16.374;2023-07-20T16:42:23;1.10;;;0.70;;
37303;SDS011;23188;51.188;16.374;2023-07-20T16:46:28;0.70;;;0.60;;
37303;SDS011;23188;51.188;16.374;2023-07-20T16:50:33;0.40;;;0.40;;
37303;SDS011;23188;51.188;16.374;2023-07-20T16:54:35;1.30;;;0.90;;
37303;SDS011;23188;51.188;16.374;2023-07-20T16:58:37;1.00;;;0.70;;
37303;SDS011;23188;51.188;16.374;2023-07-20T17:02:39;3.30;;;1.00;;
37303;SDS011;23188;51.188;16.374;2023-07-20T17:06:41;1.60;;;1.20;;
37303;SDS011;23188;51.188;16.374;2023-07-20T17:10:43;1.30;;;0.90;;
37303;SDS011;23188;51.188;16.374;2023-07-20T17:14:44;4.90;;;1.50;;
37303;SDS011;23188;51.188;16.374;2023-07-20T17:18:46;1.80;;;1.30;;
37303;SDS011;23188;51.188;16.374;2023-07-20T17:22:51;1.50;;;1.00;;
37303;SDS011;23188;51.188;16.374;2023-07-20T17:26:53;3.10;;;1.20;;
37303;SDS011;23188;51.188;16.374;2023-07-20T17:31:14;2.70;;;0.70;;
37303;SDS011;23188;51.188;16.374;2023-07-20T17:35:16;0.80;;;0.70;;
37303;SDS011;23188;51.188;16.374;2023-07-20T17:39:18;1.00;;;0.70;;
37303;SDS011;23188;51.188;16.374;2023-07-20T17:43:19;1.70;;;1.20;;
37303;SDS011;23188;51.188;16.374;2023-07-20T17:47:21;1.40;;;0.90;;
37303;SDS011;23188;51.188;16.374;2023-07-20T17:51:22;0.90;;;0.60;;
37303;SDS011;23188;51.188;16.374;2023-07-20T17:55:24;1.40;;;0.90;;
37303;SDS011;23188;51.188;16.374;2023-07-20T17:59:26;1.70;;;0.90;;
37303;SDS011;23188;51.188;16.374;2023-07-20T18:03:27;1.00;;;0.90;;
37303;SDS011;23188;51.188;16.374;2023-07-20T18:07:29;2.10;;;1.20;;
37303;SDS011;23188;51.188;16.374;2023-07-20T18:11:31;0.60;;;0.60;;
37303;SDS011;23188;51.188;16.374;2023-07-20T18:15:32;0.90;;;0.50;;
37303;SDS011;23188;51.188;16.374;2023-07-20T18:19:34;1.80;;;0.80;;
37303;SDS011;23188;51.188;16.374;2023-07-20T18:23:35;1.60;;;1.20;;
37303;SDS011;23188;51.188;16.374;2023-07-20T18:27:37;1.80;;;0.90;;
37303;SDS011;23188;51.188;16.374;2023-07-20T18:31:39;2.40;;;0.90;;
37303;SDS011;23188;51.188;16.374;2023-07-20T18:35:41;1.90;;;1.40;;
37303;SDS011;23188;51.188;16.374;2023-07-20T18:39:44;0.80;;;0.60;;
37303;SDS011;23188;51.188;16.374;2023-07-20T18:43:46;2.90;;;1.00;;
37303;SDS011;23188;51.188;16.374;2023-07-20T18:47:47;1.90;;;1.10;;
37303;SDS011;23188;51.188;16.374;2023-07-20T18:51:49;1.00;;;0.90;;
37303;SDS011;23188;51.188;16.374;2023-07-20T18:55:51;1.60;;;1.40;;
37303;SDS011;23188;51.188;16.374;2023-07-20T18:59:52;1.90;;;1.00;;
37303;SDS011;23188;51.188;16.374;2023-07-20T19:03:54;2.20;;;1.00;;
37303;SDS011;23188;51.188;16.374;2023-07-20T19:07:57;4.00;;;1.90;;
37303;SDS011;23188;51.188;16.374;2023-07-20T19:12:01;2.50;;;1.90;;
37303;SDS011;23188;51.188;16.374;2023-07-20T19:16:03;3.20;;;1.20;;
37303;SDS011;23188;51.188;16.374;2023-07-20T19:20:06;3.10;;;1.50;;
37303;SDS011;23188;51.188;16.374;2023-07-20T19:24:08;1.80;;;1.30;;
37303;SDS011;23188;51.188;16.374;2023-07-20T19:28:10;1.50;;;1.30;;
37303;SDS011;23188;51.188;16.374;2023-07-20T19:32:11;2.50;;;1.40;;
37303;SDS011;23188;51.188;16.374;2023-07-20T19:36:12;2.40;;;1.70;;
37303;SDS011;23188;51.188;16.374;2023-07-20T19:40:14;6.80;;;2.10;;
37303;SDS011;23188;51.188;16.374;2023-07-20T19:44:16;4.10;;;2.10;;
37303;SDS011;23188;51.188;16.374;2023-07-20T19:48:18;3.00;;;2.20;;
37303;SDS011;23188;51.188;16.374;2023-07-20T19:52:21;4.00;;;1.50;;
37303;SDS011;23188;51.188;16.374;2023-07-20T19:56:23;4.10;;;1.50;;
37303;SDS011;23188;51.188;16.374;2023-07-20T20:00:26;2.60;;;2.00;;
37303;SDS011;23188;51.188;16.374;2023-07-20T20:04:31;4.20;;;2.10;;
37303;SDS011;23188;51.188;16.374;2023-07-20T20:08:35;4.70;;;2.50;;
37303;SDS011;23188;51.188;16.374;2023-07-20T20:12:37;3.40;;;1.90;;
37303;SDS011;23188;51.188;16.374;2023-07-20T20:16:39;2.70;;;2.50;;
37303;SDS011;23188;51.188;16.374;2023-07-20T20:20:43;3.80;;;2.20;;
37303;SDS011;23188;51.188;16.374;2023-07-20T20:24:45;13.70;;;2.80;;
37303;SDS011;23188;51.188;16.374;2023-07-20T20:28:47;14.10;;;2.80;;
37303;SDS011;23188;51.188;16.374;2023-07-20T20:32:52;3.60;;;2.80;;
37303;SDS011;23188;51.188;16.374;2023-07-20T20:36:53;4.20;;;3.60;;
37303;SDS011;23188;51.188;16.374;2023-07-20T20:40:55;3.90;;;2.80;;
37303;SDS011;23188;51.188;16.374;2023-07-20T20:44:59;2.60;;;2.30;;
37303;SDS011;23188;51.188;16.374;2023-07-20T20:49:00;5.00;;;3.90;;
37303;SDS011;23188;51.188;16.374;2023-07-20T20:53:04;3.30;;;3.00;;
37303;SDS011;23188;51.188;16.374;2023-07-20T20:57:06;3.00;;;2.00;;
37303;SDS011;23188;51.188;16.374;2023-07-20T21:01:08;4.60;;;3.10;;
37303;SDS011;23188;51.188;16.374;2023-07-20T21:05:09;3.90;;;3.50;;
37303;SDS011;23188;51.188;16.374;2023-07-20T21:09:11;3.80;;;2.30;;
37303;SDS011;23188;51.188;16.374;2023-07-20T21:13:13;2.70;;;2.40;;
37303;SDS011;23188;51.188;16.374;2023-07-20T21:17:15;4.80;;;1.90;;
37303;SDS011;23188;51.188;16.374;2023-07-20T21:21:16;4.80;;;2.40;;
37303;SDS011;23188;51.188;16.374;2023-07-20T21:25:18;4.00;;;2.90;;
37303;SDS011;23188;51.188;16.374;2023-07-20T21:29:20;1.80;;;1.70;;
37303;SDS011;23188;51.188;16.374;2023-07-20T21:33:21;5.00;;;2.60;;
37303;SDS011;23188;51.188;16.374;2023-07-20T21:37:28;1.50;;;1.20;;
37303;SDS011;23188;51.188;16.374;2023-07-20T21:41:30;7.40;;;3.10;;
37303;SDS011;23188;51.188;16.374;2023-07-20T21:45:31;4.80;;;2.20;;
37303;SDS011;23188;51.188;16.374;2023-07-20T21:49:33;7.80;;;2.40;;
37303;SDS011;23188;51.188;16.374;2023-07-20T21:53:34;2.90;;;2.60;;
37303;SDS011;23188;51.188;16.374;2023-07-20T21:57:36;5.20;;;2.40;;
37303;SDS011;23188;51.188;16.374;2023-07-20T22:01:37;3.40;;;2.30;;
37303;SDS011;23188;51.188;16.374;2023-07-20T22:05:42;2.50;;;2.20;;
37303;SDS011;23188;51.188;16.374;2023-07-20T22:09:46;3.30;;;2.50;;
37303;SDS011;23188;51.188;16.374;2023-07-20T22:13:48;7.70;;;3.70;;
37303;SDS011;23188;51.188;16.374;2023-07-20T22:17:50;3.50;;;2.40;;
37303;SDS011;23188;51.188;16.374;2023-07-20T22:21:52;3.00;;;2.70;;
37303;SDS011;23188;51.188;16.374;2023-07-20T22:25:54;3.70;;;3.00;;
37303;SDS011;23188;51.188;16.374;2023-07-20T22:29:56;4.00;;;2.60;;
37303;SDS011;23188;51.188;16.374;2023-07-20T22:33:57;3.10;;;2.90;;
37303;SDS011;23188;51.188;16.374;2023-07-20T22:37:59;4.80;;;2.80;;
37303;SDS011;23188;51.188;16.374;2023-07-20T22:42:02;4.60;;;3.60;;
37303;SDS011;23188;51.188;16.374;2023-07-20T22:46:04;3.60;;;3.20;;
37303;SDS011;23188;51.188;16.374;2023-07-20T22:50:06;3.60;;;3.20;;
37303;SDS011;23188;51.188;16.374;2023-07-20T22:54:08;3.10;;;2.80;;
37303;SDS011;23188;51.188;16.374;2023-07-20T22:58:11;3.60;;;3.30;;
37303;SDS011;23188;51.188;16.374;2023-07-20T23:02:13;3.90;;;3.40;;
37303;SDS011;23188;51.188;16.374;2023-07-20T23:06:15;3.80;;;2.50;;
37303;SDS011;23188;51.188;16.374;2023-07-20T23:10:17;3.90;;;2.50;;
37303;SDS011;23188;51.188;16.374;2023-07-20T23:14:18;3.10;;;2.70;;
37303;SDS011;23188;51.188;16.374;2023-07-20T23:18:20;4.50;;;3.20;;
37303;SDS011;23188;51.188;16.374;2023-07-20T23:22:26;3.30;;;3.00;;
37303;SDS011;23188;51.188;16.374;2023-07-20T23:26:27;5.20;;;3.10;;
37303;SDS011;23188;51.188;16.374;2023-07-20T23:30:29;4.90;;;3.40;;
37303;SDS011;23188;51.188;16.374;2023-07-20T23:34:31;2.60;;;2.30;;
37303;SDS011;23188;51.188;16.374;2023-07-20T23:38:36;3.40;;;2.70;;
37303;SDS011;23188;51.188;16.374;2023-07-20T23:42:39;3.80;;;3.10;;
37303;SDS011;23188;51.188;16.374;2023-07-20T23:47:25;2.70;;;2.50;;
37303;SDS011;23188;51.188;16.374;2023-07-20T23:51:26;3.70;;;3.40;;
37303;SDS011;23188;51.188;16.374;2023-07-20T23:55:28;3.20;;;2.70;;
37303;SDS011;23188;51.188;16.374;2023-07-20T23:59:30;4.00;;;2.50;;
